createdAt,value
2022-08-26T00:01:54.392Z,22.60
2022-08-26T00:04:26.087Z,22.60
2022-08-26T00:06:55.559Z,22.60
2022-08-26T00:09:24.759Z,22.60
2022-08-26T00:11:53.836Z,22.60
2022-08-26T00:14:21.794Z,22.50
2022-08-26T00:16:49.223Z,22.60
2022-08-26T00:19:21.830Z,22.50
2022-08-26T00:21:50.730Z,22.50
2022-08-26T00:24:21.502Z,22.50
2022-08-26T00:26:49.664Z,22.50
2022-08-26T00:29:18.143Z,22.50
2022-08-26T00:31:45.749Z,22.50
2022-08-26T00:34:14.246Z,22.50
2022-08-26T00:36:43.426Z,22.40
2022-08-26T00:39:11.022Z,22.50
2022-08-26T00:41:40.441Z,22.50
2022-08-26T00:44:10.997Z,22.50
2022-08-26T00:46:54.969Z,22.40
2022-08-26T00:49:38.042Z,22.40
2022-08-26T00:52:12.125Z,22.30
2022-08-26T00:54:47.170Z,22.30
2022-08-26T00:57:18.003Z,22.30
2022-08-26T00:59:55.319Z,22.20
2022-08-26T01:02:22.562Z,22.20
2022-08-26T01:04:58.001Z,22.20
2022-08-26T01:07:31.364Z,22.20
2022-08-26T01:10:06.765Z,22.20
2022-08-26T01:12:41.567Z,22.20
2022-08-26T01:15:13.767Z,22.20
2022-08-26T01:17:41.359Z,22.10
2022-08-26T01:20:43.467Z,22.10
2022-08-26T01:23:12.233Z,22.00
2022-08-26T01:25:45.700Z,22.00
2022-08-26T01:28:18.922Z,21.90
2022-08-26T01:30:47.532Z,22.00
2022-08-26T01:33:20.646Z,21.90
2022-08-26T01:35:48.842Z,21.90
2022-08-26T01:38:17.653Z,21.90
2022-08-26T01:40:45.903Z,21.80
2022-08-26T01:43:22.371Z,21.80
2022-08-26T01:45:50.664Z,21.80
2022-08-26T01:48:22.701Z,21.80
2022-08-26T01:50:51.682Z,21.80
2022-08-26T01:53:20.360Z,21.70
2022-08-26T01:55:53.334Z,21.80
2022-08-26T01:58:42.553Z,21.70
2022-08-26T02:01:11.368Z,21.70
2022-08-26T02:03:54.274Z,21.70
2022-08-26T02:06:22.081Z,21.70
2022-08-26T02:08:53.194Z,21.70
2022-08-26T02:11:21.167Z,21.70
2022-08-26T02:14:09.154Z,21.70
2022-08-26T02:16:42.210Z,21.60
2022-08-26T02:19:16.995Z,21.60
2022-08-26T02:21:51.298Z,21.50
2022-08-26T02:24:27.860Z,21.50
2022-08-26T02:26:57.690Z,21.50
2022-08-26T02:29:38.345Z,21.50
2022-08-26T02:32:08.651Z,21.40
2022-08-26T02:34:36.428Z,21.40
2022-08-26T02:37:07.921Z,21.40
2022-08-26T02:39:39.101Z,21.30
2022-08-26T02:42:07.296Z,21.40
2022-08-26T02:44:34.955Z,21.20
2022-08-26T02:47:02.547Z,21.20
2022-08-26T02:49:30.388Z,21.10
2022-08-26T02:51:58.830Z,21.10
2022-08-26T02:54:28.977Z,21.10
2022-08-26T02:56:56.321Z,21.10
2022-08-26T02:59:24.283Z,20.90
2022-08-26T03:01:52.051Z,20.90
2022-08-26T03:04:19.106Z,20.90
2022-08-26T03:06:52.886Z,20.90
2022-08-26T03:09:20.111Z,20.80
2022-08-26T03:11:47.277Z,20.80
2022-08-26T03:14:14.405Z,20.80
2022-08-26T03:16:41.846Z,20.80
2022-08-26T03:19:09.539Z,20.80
2022-08-26T03:21:38.678Z,20.80
2022-08-26T03:24:06.060Z,20.70
2022-08-26T03:26:33.094Z,20.70
2022-08-26T03:29:18.514Z,20.70
2022-08-26T03:31:47.032Z,20.60
2022-08-26T03:34:14.762Z,20.60
2022-08-26T03:36:42.101Z,20.60
2022-08-26T03:39:12.099Z,20.60
2022-08-26T03:41:39.541Z,20.60
2022-08-26T03:44:11.018Z,20.50
2022-08-26T03:46:58.774Z,20.50
2022-08-26T03:49:25.796Z,20.50
2022-08-26T03:51:56.000Z,20.50
2022-08-26T03:54:23.064Z,20.40
2022-08-26T03:56:50.655Z,20.40
2022-08-26T03:59:17.695Z,20.40
2022-08-26T04:01:44.695Z,20.40
2022-08-26T04:04:12.424Z,20.30
2022-08-26T04:06:43.405Z,20.30
2022-08-26T04:09:18.510Z,20.30
2022-08-26T04:11:50.484Z,20.20
2022-08-26T04:14:22.376Z,20.20
2022-08-26T04:16:50.303Z,20.20
2022-08-26T04:19:19.337Z,20.70
2022-08-26T04:21:48.377Z,20.20
2022-08-26T04:24:16.719Z,20.20
2022-08-26T04:26:44.674Z,20.20
2022-08-26T04:29:19.598Z,20.20
2022-08-26T04:31:48.207Z,20.10
2022-08-26T04:34:15.920Z,20.10
2022-08-26T04:36:43.978Z,20.10
2022-08-26T04:39:14.151Z,20.10
2022-08-26T04:41:41.124Z,20.20
2022-08-26T04:44:08.505Z,20.20
2022-08-26T04:46:36.603Z,20.70
2022-08-26T04:49:11.395Z,20.50
2022-08-26T04:51:39.573Z,20.10
2022-08-26T04:54:10.319Z,20.40
2022-08-26T04:56:43.845Z,20.20
2022-08-26T04:59:17.221Z,20.20
2022-08-26T05:01:48.873Z,20.20
2022-08-26T05:04:19.335Z,20.20
2022-08-26T05:06:48.172Z,20.20
2022-08-26T05:09:15.535Z,20.50
2022-08-26T05:11:42.566Z,20.20
2022-08-26T05:14:09.737Z,20.20
2022-08-26T05:16:37.731Z,20.30
2022-08-26T05:19:08.570Z,20.30
2022-08-26T05:21:35.930Z,20.40
2022-08-26T05:24:04.841Z,20.40
2022-08-26T05:26:32.814Z,20.50
2022-08-26T05:29:01.464Z,20.50
2022-08-26T05:31:33.637Z,20.60
2022-08-26T05:34:04.385Z,20.60
2022-08-26T05:36:35.497Z,20.60
2022-08-26T05:39:04.855Z,20.70
2022-08-26T05:41:36.659Z,20.70
2022-08-26T05:44:09.313Z,20.80
2022-08-26T05:46:38.436Z,20.80
2022-08-26T05:49:12.534Z,20.90
2022-08-26T05:51:46.244Z,20.90
2022-08-26T05:54:22.057Z,20.90
2022-08-26T05:56:51.268Z,21.00
2022-08-26T05:59:24.397Z,21.00
2022-08-26T06:01:53.096Z,21.00
2022-08-26T06:04:20.162Z,21.00
2022-08-26T06:06:47.583Z,21.10
2022-08-26T06:09:14.951Z,21.10
2022-08-26T06:11:45.294Z,21.10
2022-08-26T06:14:12.381Z,21.10
2022-08-26T06:16:46.143Z,21.10
2022-08-26T06:19:15.512Z,21.20
2022-08-26T06:21:46.629Z,21.20
2022-08-26T06:24:33.088Z,21.30
2022-08-26T06:27:09.584Z,21.30
2022-08-26T06:29:38.507Z,21.40
2022-08-26T06:32:05.672Z,21.40
2022-08-26T06:34:34.063Z,21.40
2022-08-26T06:37:03.300Z,21.50
2022-08-26T06:39:31.558Z,21.50
2022-08-26T06:42:03.157Z,21.50
2022-08-26T06:44:33.154Z,21.60
2022-08-26T06:47:00.080Z,21.60
2022-08-26T06:49:27.806Z,21.70
2022-08-26T06:51:59.337Z,21.70
2022-08-26T06:54:30.214Z,21.80
2022-08-26T06:56:57.751Z,21.70
2022-08-26T06:59:25.793Z,21.80
2022-08-26T07:01:53.353Z,21.80
2022-08-26T07:04:23.275Z,21.80
2022-08-26T07:06:53.351Z,21.90
2022-08-26T07:09:24.071Z,22.00
2022-08-26T07:11:52.347Z,22.00
2022-08-26T07:14:21.469Z,22.00
2022-08-26T07:16:50.416Z,22.10
2022-08-26T07:19:30.014Z,22.20
2022-08-26T07:22:02.197Z,22.20
2022-08-26T07:24:31.132Z,22.30
2022-08-26T07:27:01.834Z,22.30
2022-08-26T07:29:30.434Z,22.40
2022-08-26T07:31:57.671Z,22.50
2022-08-26T07:34:25.333Z,22.50
2022-08-26T07:36:53.433Z,22.60
2022-08-26T07:39:22.739Z,22.60
2022-08-26T07:41:50.578Z,22.80
2022-08-26T07:44:18.174Z,22.70
2022-08-26T07:46:52.274Z,22.80
2022-08-26T07:49:25.039Z,22.80
2022-08-26T07:51:54.073Z,22.90
2022-08-26T07:54:21.690Z,23.00
2022-08-26T07:56:54.777Z,23.00
2022-08-26T07:59:23.407Z,23.10
2022-08-26T08:01:51.110Z,23.10
2022-08-26T08:04:21.905Z,23.20
2022-08-26T08:06:54.320Z,23.20
2022-08-26T08:09:22.550Z,23.20
2022-08-26T08:11:50.025Z,23.20
2022-08-26T08:14:22.178Z,23.10
2022-08-26T08:16:51.287Z,23.10
2022-08-26T08:19:23.088Z,23.10
2022-08-26T08:21:51.497Z,23.10
2022-08-26T08:24:19.446Z,23.00
2022-08-26T08:26:46.479Z,23.10
2022-08-26T08:29:13.966Z,23.10
2022-08-26T08:31:58.511Z,23.20
2022-08-26T08:34:29.021Z,23.30
2022-08-26T08:36:57.237Z,23.40
2022-08-26T08:39:25.342Z,23.50
2022-08-26T08:42:08.096Z,23.50
2022-08-26T08:44:41.058Z,23.60
2022-08-26T08:47:34.131Z,23.70
2022-08-26T08:50:34.013Z,23.80
2022-08-26T08:53:04.173Z,23.90
2022-08-26T08:55:51.544Z,23.90
2022-08-26T08:58:35.799Z,24.00
2022-08-26T09:01:07.179Z,24.10
2022-08-26T09:04:17.191Z,24.20
2022-08-26T09:06:46.891Z,24.30
2022-08-26T09:09:27.963Z,24.30
2022-08-26T09:11:56.343Z,24.40
2022-08-26T09:14:23.601Z,24.50
2022-08-26T09:17:12.108Z,24.50
2022-08-26T09:19:50.077Z,24.60
2022-08-26T09:22:33.338Z,24.70
2022-08-26T09:25:01.789Z,24.70
2022-08-26T09:27:52.396Z,24.80
2022-08-26T09:30:33.148Z,24.90
2022-08-26T09:33:10.163Z,24.90
2022-08-26T09:35:45.520Z,25.00
2022-08-26T09:38:33.239Z,25.10
2022-08-26T09:41:05.031Z,25.10
2022-08-26T09:43:32.934Z,25.20
2022-08-26T09:46:24.854Z,25.20
2022-08-26T09:48:53.224Z,25.30
2022-08-26T09:51:24.238Z,25.40
2022-08-26T09:53:54.946Z,25.50
2022-08-26T09:56:25.288Z,25.60
2022-08-26T09:58:53.169Z,25.70
2022-08-26T10:01:36.269Z,25.90
2022-08-26T10:04:26.754Z,26.10
2022-08-26T10:07:01.206Z,26.30
2022-08-26T10:09:34.153Z,26.60
2022-08-26T10:12:07.146Z,26.80
2022-08-26T10:14:54.244Z,27.00
2022-08-26T10:18:15.920Z,27.20
2022-08-26T10:21:18.000Z,27.40
2022-08-26T10:23:52.081Z,27.60
2022-08-26T10:26:53.302Z,27.80
2022-08-26T10:29:34.272Z,28.00
2022-08-26T10:32:10.359Z,28.10
2022-08-26T10:34:40.934Z,28.20
2022-08-26T10:37:21.783Z,28.40
2022-08-26T10:39:59.041Z,28.50
2022-08-26T10:43:30.218Z,28.50
2022-08-26T10:46:08.917Z,28.60
2022-08-26T10:49:06.549Z,28.70
2022-08-26T10:51:42.136Z,28.80
2022-08-26T10:54:30.875Z,28.90
2022-08-26T10:57:14.788Z,29.00
2022-08-26T11:00:01.241Z,29.10
2022-08-26T11:02:40.485Z,29.20
2022-08-26T11:05:24.828Z,29.20
2022-08-26T11:07:56.136Z,29.30
2022-08-26T11:10:23.996Z,29.30
2022-08-26T11:13:03.627Z,29.40
2022-08-26T11:15:31.339Z,29.40
2022-08-26T11:18:08.246Z,29.40
2022-08-26T11:20:47.252Z,29.50
2022-08-26T11:23:23.120Z,29.60
2022-08-26T11:25:57.177Z,29.60
2022-08-26T11:28:48.615Z,29.80
2022-08-26T11:31:25.318Z,29.90
2022-08-26T11:34:01.969Z,30.10
2022-08-26T11:36:47.799Z,30.20
2022-08-26T11:39:47.860Z,30.40
2022-08-26T11:42:49.211Z,30.30
2022-08-26T11:45:42.400Z,30.20
2022-08-26T11:48:23.941Z,30.10
2022-08-26T11:51:20.310Z,30.00
2022-08-26T11:53:47.460Z,30.10
2022-08-26T11:56:31.610Z,30.30
2022-08-26T11:59:03.510Z,30.30
2022-08-26T12:01:38.859Z,30.40
2022-08-26T12:04:09.191Z,30.30
2022-08-26T12:06:47.468Z,30.20
2022-08-26T12:09:27.721Z,30.10
2022-08-26T12:12:15.075Z,29.90
2022-08-26T12:14:42.965Z,29.80
2022-08-26T12:17:27.794Z,29.60
2022-08-26T12:19:54.691Z,29.50
2022-08-26T12:22:38.773Z,29.40
2022-08-26T12:25:11.367Z,29.30
2022-08-26T12:27:42.643Z,29.20
2022-08-26T12:30:21.490Z,29.20
2022-08-26T12:33:22.099Z,29.20
2022-08-26T12:35:56.302Z,29.30
2022-08-26T12:38:28.459Z,29.10
2022-08-26T12:40:56.894Z,29.00
2022-08-26T12:43:44.961Z,28.90
2022-08-26T12:46:17.671Z,28.70
2022-08-26T12:48:49.142Z,28.60
2022-08-26T12:51:32.296Z,28.40
2022-08-26T12:54:07.659Z,28.30
2022-08-26T12:56:39.041Z,29.20
2022-08-26T12:59:21.148Z,28.00
2022-08-26T13:01:49.448Z,27.90
2022-08-26T13:04:41.948Z,27.70
2022-08-26T13:07:22.766Z,27.50
2022-08-26T13:09:53.263Z,27.30
2022-08-26T13:12:37.330Z,27.20
2022-08-26T13:15:05.971Z,26.90
2022-08-26T13:17:34.942Z,26.80
2022-08-26T13:20:04.077Z,26.60
2022-08-26T13:22:32.087Z,26.50
2022-08-26T13:24:59.129Z,26.40
2022-08-26T13:27:27.327Z,26.30
2022-08-26T13:29:57.074Z,26.10
2022-08-26T13:32:27.230Z,26.00
2022-08-26T13:34:56.564Z,25.90
2022-08-26T13:37:24.370Z,25.80
2022-08-26T13:40:04.857Z,25.70
2022-08-26T13:42:31.907Z,25.70
2022-08-26T13:44:59.752Z,25.60
2022-08-26T13:47:28.588Z,25.60
2022-08-26T13:49:56.380Z,25.60
2022-08-26T13:52:30.141Z,25.50
2022-08-26T13:55:01.582Z,25.50
2022-08-26T13:57:30.129Z,25.50
2022-08-26T13:59:59.083Z,25.50
2022-08-26T14:02:27.585Z,25.40
2022-08-26T14:04:55.281Z,25.40
2022-08-26T14:07:22.754Z,25.40
2022-08-26T14:09:49.761Z,25.40
2022-08-26T14:12:16.784Z,25.30
2022-08-26T14:14:43.777Z,25.30
2022-08-26T14:17:13.511Z,25.30
2022-08-26T14:19:45.539Z,25.20
2022-08-26T14:22:15.813Z,25.20
2022-08-26T14:24:43.070Z,25.20
2022-08-26T14:27:11.967Z,25.20
2022-08-26T14:29:39.315Z,25.20
2022-08-26T14:32:18.910Z,25.10
2022-08-26T14:34:48.807Z,25.10
2022-08-26T14:37:15.784Z,25.10
2022-08-26T14:39:42.825Z,25.20
2022-08-26T14:42:10.258Z,25.20
2022-08-26T14:44:37.811Z,25.20
2022-08-26T14:47:06.650Z,25.20
2022-08-26T14:49:33.610Z,25.10
2022-08-26T14:52:03.641Z,25.10
2022-08-26T14:54:30.706Z,25.20
2022-08-26T14:57:01.323Z,25.20
2022-08-26T14:59:45.520Z,25.20
2022-08-26T15:02:32.469Z,25.20
2022-08-26T15:05:04.693Z,25.20
2022-08-26T15:07:31.899Z,25.20
2022-08-26T15:09:58.884Z,25.10
2022-08-26T15:12:26.693Z,25.20
2022-08-26T15:14:54.013Z,25.20
2022-08-26T15:17:20.961Z,25.20
2022-08-26T15:19:47.943Z,25.20
2022-08-26T15:22:14.956Z,25.10
2022-08-26T15:24:41.954Z,25.20
2022-08-26T15:27:09.044Z,25.20
2022-08-26T15:29:36.365Z,25.10
2022-08-26T15:32:04.780Z,25.10
2022-08-26T15:34:32.028Z,25.10
2022-08-26T15:36:59.042Z,25.10
2022-08-26T15:39:26.025Z,25.10
2022-08-26T15:41:53.054Z,25.00
2022-08-26T15:44:20.670Z,25.00
2022-08-26T15:46:49.960Z,24.90
2022-08-26T15:49:18.391Z,24.90
2022-08-26T15:51:48.102Z,23.70
2022-08-26T15:54:18.018Z,24.80
2022-08-26T15:56:45.643Z,24.80
2022-08-26T15:59:15.063Z,24.80
2022-08-26T16:01:43.670Z,24.80
2022-08-26T16:04:11.398Z,24.80
2022-08-26T16:06:40.465Z,24.80
2022-08-26T16:09:08.078Z,24.80
2022-08-26T16:11:36.036Z,24.70
2022-08-26T16:14:04.619Z,24.70
2022-08-26T16:16:32.199Z,24.70
2022-08-26T16:19:02.280Z,24.80
2022-08-26T16:21:32.840Z,24.80
2022-08-26T16:24:03.646Z,24.90
2022-08-26T16:26:34.047Z,25.10
2022-08-26T16:29:02.629Z,25.40
2022-08-26T16:31:29.838Z,25.80
2022-08-26T16:33:56.855Z,26.20
2022-08-26T16:36:23.861Z,26.30
2022-08-26T16:38:55.239Z,26.20
2022-08-26T16:41:24.817Z,26.00
2022-08-26T16:43:52.298Z,25.80
2022-08-26T16:46:22.183Z,25.60
2022-08-26T16:48:49.695Z,25.40
2022-08-26T16:51:19.575Z,25.30
2022-08-26T16:53:46.938Z,25.20
2022-08-26T16:56:17.247Z,25.00
2022-08-26T16:58:44.347Z,24.90
2022-08-26T17:01:11.708Z,24.80
2022-08-26T17:03:38.670Z,24.70
2022-08-26T17:06:05.865Z,24.60
2022-08-26T17:08:32.921Z,24.50
2022-08-26T17:11:00.891Z,24.40
2022-08-26T17:13:35.854Z,24.30
2022-08-26T17:16:06.166Z,24.10
2022-08-26T17:18:34.612Z,24.00
2022-08-26T17:21:08.119Z,23.90
2022-08-26T17:23:35.754Z,23.80
2022-08-26T17:26:03.004Z,23.70
2022-08-26T17:28:29.981Z,23.70
2022-08-26T17:30:58.446Z,23.60
2022-08-26T17:33:26.491Z,23.50
2022-08-26T17:35:54.291Z,23.40
2022-08-26T17:38:21.958Z,23.40
2022-08-26T17:40:50.016Z,23.20
2022-08-26T17:43:17.959Z,23.20
2022-08-26T17:45:45.128Z,23.10
2022-08-26T17:48:13.025Z,23.00
2022-08-26T17:50:42.198Z,22.90
2022-08-26T17:53:12.713Z,22.90
2022-08-26T17:55:49.922Z,22.80
2022-08-26T17:58:20.015Z,22.70
2022-08-26T18:00:51.054Z,22.70
2022-08-26T18:03:19.189Z,22.60
2022-08-26T18:05:52.040Z,22.50
2022-08-26T18:08:20.188Z,22.50
2022-08-26T18:10:47.829Z,22.40
2022-08-26T18:13:15.209Z,22.30
2022-08-26T18:15:45.351Z,22.30
2022-08-26T18:18:15.980Z,22.20
2022-08-26T18:20:45.361Z,22.10
2022-08-26T18:23:13.130Z,22.00
2022-08-26T18:25:44.278Z,22.00
2022-08-26T18:28:11.525Z,21.90
2022-08-26T18:30:38.648Z,21.80
2022-08-26T18:33:05.814Z,21.80
2022-08-26T18:35:32.771Z,21.80
2022-08-26T18:38:02.820Z,21.80
2022-08-26T18:40:41.518Z,21.70
2022-08-26T18:43:08.915Z,21.70
2022-08-26T18:45:36.391Z,21.70
2022-08-26T18:48:04.634Z,21.70
2022-08-26T18:50:31.677Z,21.60
2022-08-26T18:52:58.660Z,21.60
2022-08-26T18:55:25.625Z,21.50
2022-08-26T18:57:52.657Z,21.50
2022-08-26T19:00:19.657Z,21.50
2022-08-26T19:02:47.025Z,21.50
2022-08-26T19:05:19.717Z,21.40
2022-08-26T19:07:48.003Z,21.40
2022-08-26T19:10:15.114Z,21.40
2022-08-26T19:12:42.568Z,21.40
2022-08-26T19:15:11.723Z,21.30
2022-08-26T19:17:38.881Z,21.30
2022-08-26T19:20:07.369Z,21.30
2022-08-26T19:22:34.380Z,21.20
2022-08-26T19:25:01.387Z,21.20
2022-08-26T19:27:28.412Z,21.10
2022-08-26T19:29:56.434Z,21.10
2022-08-26T19:32:24.293Z,21.10
2022-08-26T19:34:52.444Z,21.10
2022-08-26T19:37:21.399Z,21.10
2022-08-26T19:39:48.740Z,21.00
2022-08-26T19:42:16.574Z,20.90
2022-08-26T19:45:02.370Z,20.90
2022-08-26T19:47:29.475Z,20.80
2022-08-26T19:49:57.289Z,20.70
2022-08-26T19:52:29.811Z,20.70
2022-08-26T19:54:58.283Z,20.70
2022-08-26T19:57:25.388Z,20.70
2022-08-26T19:59:52.446Z,20.70
2022-08-26T20:02:19.539Z,20.70
2022-08-26T20:04:46.893Z,20.70
2022-08-26T20:07:18.515Z,20.70
2022-08-26T20:09:47.354Z,20.60
2022-08-26T20:12:15.492Z,20.60
2022-08-26T20:14:43.250Z,20.50
2022-08-26T20:17:10.498Z,20.50
2022-08-26T20:19:56.421Z,20.50
2022-08-26T20:22:23.789Z,20.40
2022-08-26T20:24:51.635Z,20.40
2022-08-26T20:27:18.923Z,20.40
2022-08-26T20:29:45.906Z,20.40
2022-08-26T20:32:13.008Z,20.40
2022-08-26T20:34:40.069Z,20.40
2022-08-26T20:37:08.414Z,20.40
2022-08-26T20:39:35.445Z,20.30
2022-08-26T20:42:02.740Z,20.20
2022-08-26T20:44:29.941Z,20.20
2022-08-26T20:46:57.239Z,20.20
2022-08-26T20:49:24.255Z,20.20
2022-08-26T20:51:51.495Z,20.20
2022-08-26T20:54:21.503Z,20.10
2022-08-26T20:56:50.655Z,20.30
2022-08-26T20:59:18.623Z,20.00
2022-08-26T21:01:46.251Z,20.10
2022-08-26T21:04:18.086Z,20.80
2022-08-26T21:06:51.612Z,20.00
2022-08-26T21:09:24.969Z,20.00
2022-08-26T21:11:53.463Z,20.40
2022-08-26T21:14:22.885Z,20.00
2022-08-26T21:16:53.668Z,20.00
2022-08-26T21:19:20.717Z,20.00
2022-08-26T21:21:48.924Z,20.20
2022-08-26T21:24:16.450Z,20.00
2022-08-26T21:26:43.506Z,19.90
2022-08-26T21:29:10.548Z,20.10
2022-08-26T21:31:43.519Z,19.90
2022-08-26T21:34:13.567Z,19.80
2022-08-26T21:36:40.535Z,19.80
2022-08-26T21:39:11.533Z,19.70
2022-08-26T21:41:40.870Z,19.80
2022-08-26T21:44:08.358Z,19.70
2022-08-26T21:46:37.320Z,19.70
2022-08-26T21:49:08.028Z,19.70
2022-08-26T21:51:43.127Z,19.70
2022-08-26T21:54:11.705Z,19.60
2022-08-26T21:56:46.103Z,19.60
2022-08-26T21:59:16.627Z,19.50
2022-08-26T22:01:43.575Z,19.50
2022-08-26T22:04:10.839Z,19.50
2022-08-26T22:06:50.075Z,19.50
2022-08-26T22:09:24.246Z,19.40
2022-08-26T22:11:52.461Z,19.50
2022-08-26T22:14:30.208Z,19.40
2022-08-26T22:16:59.760Z,19.40
2022-08-26T22:19:26.954Z,19.30
2022-08-26T22:21:55.399Z,19.30
2022-08-26T22:24:24.972Z,19.30
2022-08-26T22:26:53.329Z,19.20
2022-08-26T22:29:20.842Z,19.20
2022-08-26T22:31:47.836Z,19.20
2022-08-26T22:34:17.386Z,19.20
2022-08-26T22:36:49.514Z,19.20
2022-08-26T22:39:21.331Z,19.10
2022-08-26T22:41:49.394Z,19.20
2022-08-26T22:44:18.376Z,19.20
2022-08-26T22:46:47.422Z,19.20
2022-08-26T22:49:18.121Z,19.10
2022-08-26T22:51:46.590Z,19.10
2022-08-26T22:54:15.548Z,19.00
2022-08-26T22:56:44.685Z,19.10
2022-08-26T22:59:12.980Z,19.00
2022-08-26T23:01:43.909Z,19.00
2022-08-26T23:04:12.042Z,18.90
2022-08-26T23:06:43.023Z,18.90
2022-08-26T23:09:11.057Z,18.90
2022-08-26T23:11:42.289Z,18.90
2022-08-26T23:14:09.957Z,18.90
2022-08-26T23:16:40.701Z,18.80
2022-08-26T23:19:10.997Z,18.90
2022-08-26T23:21:39.018Z,18.80
2022-08-26T23:24:07.635Z,21.30
2022-08-26T23:26:36.235Z,18.80
2022-08-26T23:29:05.031Z,19.40
2022-08-26T23:31:32.757Z,18.70
2022-08-26T23:34:18.459Z,18.70
2022-08-26T23:36:45.709Z,18.90
2022-08-26T23:39:14.690Z,18.60
2022-08-26T23:41:42.413Z,18.70
2022-08-26T23:44:09.395Z,18.70
2022-08-26T23:46:36.626Z,18.70
2022-08-26T23:49:06.327Z,18.70
2022-08-26T23:51:51.836Z,18.60
2022-08-26T23:54:19.711Z,19.30
2022-08-26T23:56:47.081Z,18.60
2022-08-26T23:59:14.233Z,18.60
